sensor_id;sensor_type;location;lat;lon;timestamp;P1;durP1;ratioP1;P2;durP2;ratioP2
51602;SDS011;37954;51.980;5.850;2022-11-11T00:02:40;9.83;;;5.87;;
51602;SDS011;37954;51.980;5.850;2022-11-11T00:07:10;8.53;;;5.73;;
51602;SDS011;37954;51.980;5.850;2022-11-11T00:11:40;8.87;;;5.43;;
51602;SDS011;37954;51.980;5.850;2022-11-11T00:16:11;6.13;;;5.53;;
51602;SDS011;37954;51.980;5.850;2022-11-11T00:20:43;9.03;;;6.07;;
51602;SDS011;37954;51.980;5.850;2022-11-11T00:25:32;9.73;;;6.07;;
51602;SDS011;37954;51.980;5.850;2022-11-11T00:30:04;8.77;;;6.27;;
51602;SDS011;37954;51.980;5.850;2022-11-11T00:34:34;8.32;;;6.20;;
51602;SDS011;37954;51.980;5.850;2022-11-11T00:39:04;10.23;;;6.33;;
51602;SDS011;37954;51.980;5.850;2022-11-11T00:43:34;9.40;;;5.80;;
51602;SDS011;37954;51.980;5.850;2022-11-11T00:48:04;7.93;;;6.27;;
51602;SDS011;37954;51.980;5.850;2022-11-11T00:52:53;10.00;;;7.10;;
51602;SDS011;37954;51.980;5.850;2022-11-11T00:57:23;12.13;;;6.93;;
51602;SDS011;37954;51.980;5.850;2022-11-11T01:01:53;8.95;;;7.38;;
51602;SDS011;37954;51.980;5.850;2022-11-11T01:06:24;13.65;;;7.55;;
51602;SDS011;37954;51.980;5.850;2022-11-11T01:10:54;13.00;;;8.17;;
51602;SDS011;37954;51.980;5.850;2022-11-11T01:15:25;11.77;;;8.53;;
51602;SDS011;37954;51.980;5.850;2022-11-11T01:19:55;10.60;;;8.03;;
51602;SDS011;37954;51.980;5.850;2022-11-11T01:24:24;13.25;;;7.82;;
51602;SDS011;37954;51.980;5.850;2022-11-11T01:28:55;13.15;;;8.13;;
51602;SDS011;37954;51.980;5.850;2022-11-11T01:33:26;10.68;;;8.70;;
51602;SDS011;37954;51.980;5.850;2022-11-11T01:37:56;10.93;;;8.73;;
51602;SDS011;37954;51.980;5.850;2022-11-11T01:42:27;11.60;;;9.40;;
51602;SDS011;37954;51.980;5.850;2022-11-11T01:46:57;11.45;;;9.23;;
51602;SDS011;37954;51.980;5.850;2022-11-11T01:56:41;12.20;;;9.13;;
51602;SDS011;37954;51.980;5.850;2022-11-11T02:01:15;13.15;;;9.95;;
51602;SDS011;37954;51.980;5.850;2022-11-11T02:05:46;14.55;;;10.35;;
51602;SDS011;37954;51.980;5.850;2022-11-11T02:10:18;11.23;;;9.53;;
51602;SDS011;37954;51.980;5.850;2022-11-11T02:14:52;21.38;;;10.77;;
51602;SDS011;37954;51.980;5.850;2022-11-11T02:19:48;12.30;;;10.27;;
51602;SDS011;37954;51.980;5.850;2022-11-11T02:24:22;14.00;;;10.98;;
51602;SDS011;37954;51.980;5.850;2022-11-11T02:28:54;13.38;;;10.45;;
51602;SDS011;37954;51.980;5.850;2022-11-11T02:33:26;11.73;;;9.88;;
51602;SDS011;37954;51.980;5.850;2022-11-11T02:37:56;13.27;;;10.38;;
51602;SDS011;37954;51.980;5.850;2022-11-11T02:42:27;14.70;;;10.38;;
51602;SDS011;37954;51.980;5.850;2022-11-11T02:46:57;15.95;;;10.93;;
51602;SDS011;37954;51.980;5.850;2022-11-11T02:51:27;15.30;;;10.85;;
51602;SDS011;37954;51.980;5.850;2022-11-11T02:55:57;11.25;;;10.05;;
51602;SDS011;37954;51.980;5.850;2022-11-11T03:00:27;14.18;;;10.68;;
51602;SDS011;37954;51.980;5.850;2022-11-11T03:04:57;15.52;;;11.02;;
51602;SDS011;37954;51.980;5.850;2022-11-11T03:09:27;13.50;;;10.85;;
51602;SDS011;37954;51.980;5.850;2022-11-11T03:13:57;14.65;;;10.45;;
51602;SDS011;37954;51.980;5.850;2022-11-11T03:18:28;11.93;;;10.07;;
51602;SDS011;37954;51.980;5.850;2022-11-11T03:22:59;12.52;;;10.55;;
51602;SDS011;37954;51.980;5.850;2022-11-11T03:27:33;10.73;;;9.63;;
51602;SDS011;37954;51.980;5.850;2022-11-11T03:32:04;12.90;;;9.77;;
51602;SDS011;37954;51.980;5.850;2022-11-11T03:36:35;12.38;;;10.43;;
51602;SDS011;37954;51.980;5.850;2022-11-11T03:41:25;12.63;;;9.52;;
51602;SDS011;37954;51.980;5.850;2022-11-11T03:45:56;12.23;;;10.10;;
51602;SDS011;37954;51.980;5.850;2022-11-11T03:50:27;11.20;;;9.07;;
51602;SDS011;37954;51.980;5.850;2022-11-11T03:54:57;12.95;;;10.13;;
51602;SDS011;37954;51.980;5.850;2022-11-11T03:59:27;14.13;;;9.75;;
51602;SDS011;37954;51.980;5.850;2022-11-11T04:03:57;14.27;;;8.68;;
51602;SDS011;37954;51.980;5.850;2022-11-11T04:08:46;12.82;;;9.18;;
51602;SDS011;37954;51.980;5.850;2022-11-11T04:13:35;13.95;;;9.25;;
51602;SDS011;37954;51.980;5.850;2022-11-11T04:18:23;11.85;;;8.43;;
51602;SDS011;37954;51.980;5.850;2022-11-11T04:23:13;12.98;;;9.15;;
51602;SDS011;37954;51.980;5.850;2022-11-11T04:27:43;17.10;;;9.55;;
51602;SDS011;37954;51.980;5.850;2022-11-11T04:32:15;12.60;;;8.52;;
51602;SDS011;37954;51.980;5.850;2022-11-11T04:37:07;11.95;;;8.60;;
51602;SDS011;37954;51.980;5.850;2022-11-11T04:41:37;12.73;;;8.68;;
51602;SDS011;37954;51.980;5.850;2022-11-11T04:46:27;15.65;;;8.63;;
51602;SDS011;37954;51.980;5.850;2022-11-11T04:50:57;11.57;;;8.85;;
51602;SDS011;37954;51.980;5.850;2022-11-11T04:55:28;12.23;;;9.27;;
51602;SDS011;37954;51.980;5.850;2022-11-11T05:00:17;13.48;;;8.68;;
51602;SDS011;37954;51.980;5.850;2022-11-11T05:04:48;10.93;;;8.70;;
51602;SDS011;37954;51.980;5.850;2022-11-11T05:09:18;10.90;;;8.00;;
51602;SDS011;37954;51.980;5.850;2022-11-11T05:13:49;9.30;;;8.25;;
51602;SDS011;37954;51.980;5.850;2022-11-11T05:18:39;9.52;;;8.43;;
51602;SDS011;37954;51.980;5.850;2022-11-11T05:23:27;9.40;;;8.40;;
51602;SDS011;37954;51.980;5.850;2022-11-11T05:28:17;11.80;;;8.20;;
51602;SDS011;37954;51.980;5.850;2022-11-11T05:32:48;9.02;;;7.65;;
51602;SDS011;37954;51.980;5.850;2022-11-11T05:37:18;10.68;;;7.93;;
51602;SDS011;37954;51.980;5.850;2022-11-11T05:41:49;10.85;;;8.27;;
51602;SDS011;37954;51.980;5.850;2022-11-11T05:46:19;11.70;;;7.88;;
51602;SDS011;37954;51.980;5.850;2022-11-11T05:50:49;10.13;;;6.95;;
51602;SDS011;37954;51.980;5.850;2022-11-11T05:55:19;10.90;;;7.85;;
51602;SDS011;37954;51.980;5.850;2022-11-11T05:59:49;11.35;;;7.80;;
51602;SDS011;37954;51.980;5.850;2022-11-11T06:04:19;9.57;;;7.38;;
51602;SDS011;37954;51.980;5.850;2022-11-11T06:08:49;10.02;;;7.68;;
51602;SDS011;37954;51.980;5.850;2022-11-11T06:13:20;9.43;;;7.57;;
51602;SDS011;37954;51.980;5.850;2022-11-11T06:17:50;11.55;;;8.30;;
51602;SDS011;37954;51.980;5.850;2022-11-11T06:22:20;13.50;;;7.95;;
51602;SDS011;37954;51.980;5.850;2022-11-11T06:27:10;10.27;;;8.05;;
51602;SDS011;37954;51.980;5.850;2022-11-11T06:31:40;11.18;;;8.45;;
51602;SDS011;37954;51.980;5.850;2022-11-11T06:36:11;12.32;;;8.50;;
51602;SDS011;37954;51.980;5.850;2022-11-11T06:40:43;11.27;;;8.95;;
51602;SDS011;37954;51.980;5.850;2022-11-11T06:45:14;12.38;;;7.90;;
51602;SDS011;37954;51.980;5.850;2022-11-11T06:49:44;14.18;;;8.95;;
51602;SDS011;37954;51.980;5.850;2022-11-11T06:54:14;11.45;;;9.32;;
51602;SDS011;37954;51.980;5.850;2022-11-11T06:58:44;17.65;;;8.80;;
51602;SDS011;37954;51.980;5.850;2022-11-11T07:03:15;14.40;;;8.70;;
51602;SDS011;37954;51.980;5.850;2022-11-11T07:07:53;14.77;;;8.02;;
51602;SDS011;37954;51.980;5.850;2022-11-11T07:12:25;10.68;;;8.43;;
51602;SDS011;37954;51.980;5.850;2022-11-11T07:16:55;9.80;;;8.00;;
51602;SDS011;37954;51.980;5.850;2022-11-11T07:21:30;11.05;;;9.63;;
51602;SDS011;37954;51.980;5.850;2022-11-11T07:26:01;10.83;;;9.00;;
51602;SDS011;37954;51.980;5.850;2022-11-11T07:30:31;13.27;;;9.35;;
51602;SDS011;37954;51.980;5.850;2022-11-11T07:35:02;13.52;;;9.85;;
51602;SDS011;37954;51.980;5.850;2022-11-11T07:39:33;15.20;;;11.45;;
51602;SDS011;37954;51.980;5.850;2022-11-11T07:44:03;12.50;;;10.65;;
51602;SDS011;37954;51.980;5.850;2022-11-11T07:48:33;15.43;;;11.75;;
51602;SDS011;37954;51.980;5.850;2022-11-11T07:53:04;14.63;;;11.60;;
51602;SDS011;37954;51.980;5.850;2022-11-11T07:57:34;15.77;;;12.17;;
51602;SDS011;37954;51.980;5.850;2022-11-11T08:02:07;13.40;;;12.00;;
51602;SDS011;37954;51.980;5.850;2022-11-11T08:06:38;17.20;;;12.18;;
51602;SDS011;37954;51.980;5.850;2022-11-11T08:11:09;18.55;;;12.25;;
51602;SDS011;37954;51.980;5.850;2022-11-11T08:15:40;15.20;;;12.73;;
51602;SDS011;37954;51.980;5.850;2022-11-11T08:20:10;12.30;;;10.95;;
51602;SDS011;37954;51.980;5.850;2022-11-11T08:24:41;15.77;;;11.53;;
51602;SDS011;37954;51.980;5.850;2022-11-11T08:29:31;14.98;;;11.55;;
51602;SDS011;37954;51.980;5.850;2022-11-11T08:34:01;14.70;;;11.25;;
51602;SDS011;37954;51.980;5.850;2022-11-11T08:38:31;10.95;;;9.57;;
51602;SDS011;37954;51.980;5.850;2022-11-11T08:43:02;13.43;;;10.37;;
51602;SDS011;37954;51.980;5.850;2022-11-11T08:47:33;12.93;;;9.05;;
51602;SDS011;37954;51.980;5.850;2022-11-11T08:52:03;16.80;;;9.23;;
51602;SDS011;37954;51.980;5.850;2022-11-11T08:56:34;10.80;;;7.97;;
51602;SDS011;37954;51.980;5.850;2022-11-11T09:01:04;11.70;;;8.00;;
51602;SDS011;37954;51.980;5.850;2022-11-11T09:05:40;8.27;;;7.22;;
51602;SDS011;37954;51.980;5.850;2022-11-11T09:10:10;12.80;;;7.90;;
51602;SDS011;37954;51.980;5.850;2022-11-11T09:14:40;8.25;;;6.95;;
51602;SDS011;37954;51.980;5.850;2022-11-11T09:19:11;9.38;;;7.50;;
51602;SDS011;37954;51.980;5.850;2022-11-11T09:23:41;7.72;;;6.93;;
51602;SDS011;37954;51.980;5.850;2022-11-11T09:28:11;8.13;;;6.47;;
51602;SDS011;37954;51.980;5.850;2022-11-11T09:32:42;7.30;;;6.35;;
51602;SDS011;37954;51.980;5.850;2022-11-11T09:37:12;7.55;;;6.50;;
51602;SDS011;37954;51.980;5.850;2022-11-11T09:56:23;6.10;;;5.45;;
51602;SDS011;37954;51.980;5.850;2022-11-11T10:01:14;7.78;;;5.70;;
51602;SDS011;37954;51.980;5.850;2022-11-11T10:06:00;6.63;;;5.43;;
51602;SDS011;37954;51.980;5.850;2022-11-11T10:10:41;8.45;;;5.38;;
51602;SDS011;37954;51.980;5.850;2022-11-11T10:15:14;6.13;;;5.18;;
51602;SDS011;37954;51.980;5.850;2022-11-11T10:24:44;5.43;;;4.90;;
51602;SDS011;37954;51.980;5.850;2022-11-11T10:29:23;7.70;;;5.10;;
51602;SDS011;37954;51.980;5.850;2022-11-11T10:33:59;5.40;;;4.90;;
51602;SDS011;37954;51.980;5.850;2022-11-11T10:38:34;5.25;;;4.68;;
51602;SDS011;37954;51.980;5.850;2022-11-11T10:43:23;6.13;;;4.55;;
51602;SDS011;37954;51.980;5.850;2022-11-11T10:47:57;6.95;;;4.10;;
51602;SDS011;37954;51.980;5.850;2022-11-11T10:52:38;5.78;;;4.72;;
51602;SDS011;37954;51.980;5.850;2022-11-11T10:57:40;5.45;;;4.10;;
51602;SDS011;37954;51.980;5.850;2022-11-11T11:02:22;7.60;;;4.68;;
51602;SDS011;37954;51.980;5.850;2022-11-11T11:07:00;7.28;;;4.50;;
51602;SDS011;37954;51.980;5.850;2022-11-11T11:11:35;5.05;;;4.10;;
51602;SDS011;37954;51.980;5.850;2022-11-11T11:16:18;5.55;;;4.10;;
51602;SDS011;37954;51.980;5.850;2022-11-11T11:20:57;4.18;;;3.78;;
51602;SDS011;37954;51.980;5.850;2022-11-11T11:25:33;4.05;;;3.53;;
51602;SDS011;37954;51.980;5.850;2022-11-11T11:30:17;4.50;;;4.10;;
51602;SDS011;37954;51.980;5.850;2022-11-11T11:34:53;4.45;;;3.75;;
51602;SDS011;37954;51.980;5.850;2022-11-11T11:39:32;5.30;;;3.80;;
51602;SDS011;37954;51.980;5.850;2022-11-11T11:44:23;5.28;;;3.60;;
51602;SDS011;37954;51.980;5.850;2022-11-11T12:03:57;4.55;;;3.90;;
51602;SDS011;37954;51.980;5.850;2022-11-11T12:28:49;4.90;;;3.58;;
51602;SDS011;37954;51.980;5.850;2022-11-11T12:39:29;4.40;;;3.65;;
51602;SDS011;37954;51.980;5.850;2022-11-11T12:48:56;4.63;;;3.83;;
51602;SDS011;37954;51.980;5.850;2022-11-11T12:53:37;3.67;;;3.30;;
51602;SDS011;37954;51.980;5.850;2022-11-11T12:58:23;5.55;;;3.63;;
51602;SDS011;37954;51.980;5.850;2022-11-11T13:03:06;5.28;;;3.40;;
51602;SDS011;37954;51.980;5.850;2022-11-11T13:13:02;4.20;;;3.33;;
51602;SDS011;37954;51.980;5.850;2022-11-11T13:17:51;5.55;;;3.25;;
51602;SDS011;37954;51.980;5.850;2022-11-11T13:22:25;3.97;;;3.08;;
51602;SDS011;37954;51.980;5.850;2022-11-11T13:27:02;4.25;;;3.30;;
51602;SDS011;37954;51.980;5.850;2022-11-11T13:31:37;4.15;;;3.38;;
51602;SDS011;37954;51.980;5.850;2022-11-11T13:36:12;4.22;;;3.15;;
51602;SDS011;37954;51.980;5.850;2022-11-11T13:40:48;4.30;;;2.88;;
51602;SDS011;37954;51.980;5.850;2022-11-11T13:45:25;2.97;;;2.45;;
51602;SDS011;37954;51.980;5.850;2022-11-11T13:49:58;2.95;;;2.60;;
51602;SDS011;37954;51.980;5.850;2022-11-11T13:54:34;2.78;;;2.45;;
51602;SDS011;37954;51.980;5.850;2022-11-11T13:59:23;5.35;;;2.70;;
51602;SDS011;37954;51.980;5.850;2022-11-11T14:03:58;2.53;;;2.30;;
51602;SDS011;37954;51.980;5.850;2022-11-11T14:17:53;2.22;;;2.00;;
51602;SDS011;37954;51.980;5.850;2022-11-11T14:22:31;3.30;;;2.20;;
51602;SDS011;37954;51.980;5.850;2022-11-11T14:27:03;2.50;;;1.75;;
51602;SDS011;37954;51.980;5.850;2022-11-11T14:36:51;2.65;;;2.00;;
51602;SDS011;37954;51.980;5.850;2022-11-11T14:46:19;2.22;;;1.75;;
51602;SDS011;37954;51.980;5.850;2022-11-11T14:50:49;2.00;;;1.85;;
51602;SDS011;37954;51.980;5.850;2022-11-11T14:55:20;3.22;;;2.20;;
51602;SDS011;37954;51.980;5.850;2022-11-11T14:59:58;2.05;;;1.80;;
51602;SDS011;37954;51.980;5.850;2022-11-11T15:04:35;1.98;;;1.70;;
51602;SDS011;37954;51.980;5.850;2022-11-11T15:14:05;1.80;;;1.70;;
51602;SDS011;37954;51.980;5.850;2022-11-11T15:18:53;3.03;;;2.10;;
51602;SDS011;37954;51.980;5.850;2022-11-11T15:38:19;3.97;;;2.40;;
51602;SDS011;37954;51.980;5.850;2022-11-11T15:42:50;2.65;;;2.28;;
51602;SDS011;37954;51.980;5.850;2022-11-11T15:47:21;2.70;;;2.50;;
51602;SDS011;37954;51.980;5.850;2022-11-11T15:51:56;2.58;;;2.38;;
51602;SDS011;37954;51.980;5.850;2022-11-11T15:56:31;4.20;;;2.88;;
51602;SDS011;37954;51.980;5.850;2022-11-11T16:01:03;5.95;;;2.53;;
51602;SDS011;37954;51.980;5.850;2022-11-11T16:05:35;2.97;;;2.70;;
51602;SDS011;37954;51.980;5.850;2022-11-11T16:10:12;3.42;;;3.13;;
51602;SDS011;37954;51.980;5.850;2022-11-11T16:14:55;4.05;;;3.40;;
51602;SDS011;37954;51.980;5.850;2022-11-11T16:19:35;6.45;;;4.05;;
51602;SDS011;37954;51.980;5.850;2022-11-11T16:24:22;7.38;;;4.80;;
51602;SDS011;37954;51.980;5.850;2022-11-11T16:28:59;8.48;;;5.60;;
51602;SDS011;37954;51.980;5.850;2022-11-11T16:38:04;8.20;;;6.47;;
51602;SDS011;37954;51.980;5.850;2022-11-11T16:42:34;10.10;;;7.22;;
51602;SDS011;37954;51.980;5.850;2022-11-11T16:47:05;9.23;;;7.03;;
51602;SDS011;37954;51.980;5.850;2022-11-11T16:51:55;15.02;;;8.57;;
51602;SDS011;37954;51.980;5.850;2022-11-11T16:56:36;11.65;;;8.85;;
51602;SDS011;37954;51.980;5.850;2022-11-11T17:01:12;9.10;;;7.22;;
51602;SDS011;37954;51.980;5.850;2022-11-11T17:05:53;8.32;;;6.28;;
51602;SDS011;37954;51.980;5.850;2022-11-11T17:10:37;10.88;;;8.57;;
51602;SDS011;37954;51.980;5.850;2022-11-11T17:15:14;21.05;;;16.55;;
51602;SDS011;37954;51.980;5.850;2022-11-11T17:19:46;23.42;;;17.02;;
51602;SDS011;37954;51.980;5.850;2022-11-11T17:24:17;19.90;;;15.95;;
51602;SDS011;37954;51.980;5.850;2022-11-11T17:28:47;31.02;;;22.13;;
51602;SDS011;37954;51.980;5.850;2022-11-11T17:33:18;28.40;;;20.52;;
51602;SDS011;37954;51.980;5.850;2022-11-11T17:37:48;16.95;;;12.85;;
51602;SDS011;37954;51.980;5.850;2022-11-11T17:42:19;13.80;;;10.15;;
51602;SDS011;37954;51.980;5.850;2022-11-11T17:46:49;12.45;;;8.60;;
51602;SDS011;37954;51.980;5.850;2022-11-11T17:51:20;16.77;;;10.75;;
51602;SDS011;37954;51.980;5.850;2022-11-11T17:55:51;13.98;;;11.10;;
51602;SDS011;37954;51.980;5.850;2022-11-11T18:00:22;19.50;;;15.00;;
51602;SDS011;37954;51.980;5.850;2022-11-11T18:04:52;21.17;;;15.43;;
51602;SDS011;37954;51.980;5.850;2022-11-11T18:09:27;22.43;;;14.67;;
51602;SDS011;37954;51.980;5.850;2022-11-11T18:13:57;20.42;;;11.63;;
51602;SDS011;37954;51.980;5.850;2022-11-11T18:18:28;15.87;;;11.77;;
51602;SDS011;37954;51.980;5.850;2022-11-11T18:22:59;23.00;;;13.20;;
51602;SDS011;37954;51.980;5.850;2022-11-11T18:27:29;19.83;;;15.77;;
51602;SDS011;37954;51.980;5.850;2022-11-11T18:31:59;33.23;;;19.97;;
51602;SDS011;37954;51.980;5.850;2022-11-11T18:36:30;34.40;;;21.40;;
51602;SDS011;37954;51.980;5.850;2022-11-11T18:41:10;33.20;;;23.00;;
51602;SDS011;37954;51.980;5.850;2022-11-11T18:45:43;41.40;;;27.77;;
51602;SDS011;37954;51.980;5.850;2022-11-11T18:50:13;47.00;;;31.40;;
51602;SDS011;37954;51.980;5.850;2022-11-11T18:54:43;40.27;;;26.90;;
51602;SDS011;37954;51.980;5.850;2022-11-11T18:59:13;34.80;;;21.53;;
51602;SDS011;37954;51.980;5.850;2022-11-11T19:03:44;31.90;;;20.03;;
51602;SDS011;37954;51.980;5.850;2022-11-11T19:08:14;37.07;;;26.93;;
51602;SDS011;37954;51.980;5.850;2022-11-11T19:12:45;33.73;;;26.80;;
51602;SDS011;37954;51.980;5.850;2022-11-11T19:17:16;38.63;;;26.13;;
51602;SDS011;37954;51.980;5.850;2022-11-11T19:21:53;33.70;;;23.83;;
51602;SDS011;37954;51.980;5.850;2022-11-11T19:26:25;38.57;;;24.63;;
51602;SDS011;37954;51.980;5.850;2022-11-11T19:31:10;36.30;;;23.60;;
51602;SDS011;37954;51.980;5.850;2022-11-11T19:35:54;35.10;;;24.13;;
51602;SDS011;37954;51.980;5.850;2022-11-11T19:40:27;30.30;;;21.03;;
51602;SDS011;37954;51.980;5.850;2022-11-11T19:44:58;35.13;;;21.83;;
51602;SDS011;37954;51.980;5.850;2022-11-11T19:49:29;31.53;;;20.57;;
51602;SDS011;37954;51.980;5.850;2022-11-11T19:53:59;27.67;;;16.63;;
51602;SDS011;37954;51.980;5.850;2022-11-11T19:58:29;25.43;;;17.63;;
51602;SDS011;37954;51.980;5.850;2022-11-11T20:03:01;24.27;;;16.90;;
51602;SDS011;37954;51.980;5.850;2022-11-11T20:07:32;24.63;;;15.67;;
51602;SDS011;37954;51.980;5.850;2022-11-11T20:12:02;24.67;;;16.90;;
51602;SDS011;37954;51.980;5.850;2022-11-11T20:16:33;36.40;;;23.83;;
51602;SDS011;37954;51.980;5.850;2022-11-11T20:21:06;23.60;;;16.93;;
51602;SDS011;37954;51.980;5.850;2022-11-11T20:25:37;18.53;;;11.83;;
51602;SDS011;37954;51.980;5.850;2022-11-11T20:30:07;16.73;;;13.07;;
51602;SDS011;37954;51.980;5.850;2022-11-11T20:34:38;24.70;;;15.77;;
51602;SDS011;37954;51.980;5.850;2022-11-11T20:39:08;22.67;;;17.02;;
51602;SDS011;37954;51.980;5.850;2022-11-11T20:43:39;22.60;;;14.80;;
51602;SDS011;37954;51.980;5.850;2022-11-11T20:48:09;18.67;;;13.27;;
51602;SDS011;37954;51.980;5.850;2022-11-11T20:52:42;17.57;;;14.00;;
51602;SDS011;37954;51.980;5.850;2022-11-11T20:57:13;15.83;;;12.57;;
51602;SDS011;37954;51.980;5.850;2022-11-11T21:01:44;17.40;;;13.10;;
51602;SDS011;37954;51.980;5.850;2022-11-11T21:06:16;23.30;;;18.33;;
51602;SDS011;37954;51.980;5.850;2022-11-11T21:10:47;23.03;;;19.33;;
51602;SDS011;37954;51.980;5.850;2022-11-11T21:15:17;24.40;;;18.17;;
51602;SDS011;37954;51.980;5.850;2022-11-11T21:19:48;26.33;;;16.50;;
51602;SDS011;37954;51.980;5.850;2022-11-11T21:24:18;27.30;;;16.63;;
51602;SDS011;37954;51.980;5.850;2022-11-11T21:28:48;32.07;;;21.13;;
51602;SDS011;37954;51.980;5.850;2022-11-11T21:33:19;45.47;;;28.30;;
51602;SDS011;37954;51.980;5.850;2022-11-11T21:37:49;36.60;;;25.10;;
51602;SDS011;37954;51.980;5.850;2022-11-11T21:42:22;45.50;;;25.30;;
51602;SDS011;37954;51.980;5.850;2022-11-11T21:46:54;30.50;;;19.87;;
51602;SDS011;37954;51.980;5.850;2022-11-11T21:51:26;17.73;;;14.10;;
51602;SDS011;37954;51.980;5.850;2022-11-11T21:55:59;18.53;;;13.83;;
51602;SDS011;37954;51.980;5.850;2022-11-11T22:00:34;33.23;;;21.10;;
51602;SDS011;37954;51.980;5.850;2022-11-11T22:05:04;44.17;;;25.80;;
51602;SDS011;37954;51.980;5.850;2022-11-11T22:09:36;33.80;;;21.07;;
51602;SDS011;37954;51.980;5.850;2022-11-11T22:14:06;33.07;;;20.33;;
51602;SDS011;37954;51.980;5.850;2022-11-11T22:18:38;27.13;;;19.43;;
51602;SDS011;37954;51.980;5.850;2022-11-11T22:23:13;34.03;;;20.37;;
51602;SDS011;37954;51.980;5.850;2022-11-11T22:27:43;30.17;;;17.30;;
51602;SDS011;37954;51.980;5.850;2022-11-11T22:32:13;19.97;;;13.00;;
51602;SDS011;37954;51.980;5.850;2022-11-11T22:36:44;14.70;;;12.03;;
51602;SDS011;37954;51.980;5.850;2022-11-11T22:41:15;14.07;;;10.50;;
51602;SDS011;37954;51.980;5.850;2022-11-11T22:45:57;20.47;;;13.50;;
51602;SDS011;37954;51.980;5.850;2022-11-11T22:50:27;20.80;;;15.33;;
51602;SDS011;37954;51.980;5.850;2022-11-11T22:54:57;34.80;;;17.40;;
51602;SDS011;37954;51.980;5.850;2022-11-11T22:59:28;24.93;;;16.37;;
51602;SDS011;37954;51.980;5.850;2022-11-11T23:03:59;20.03;;;14.20;;
51602;SDS011;37954;51.980;5.850;2022-11-11T23:08:31;25.00;;;15.83;;
51602;SDS011;37954;51.980;5.850;2022-11-11T23:13:01;27.10;;;16.73;;
51602;SDS011;37954;51.980;5.850;2022-11-11T23:17:32;20.30;;;14.50;;
51602;SDS011;37954;51.980;5.850;2022-11-11T23:22:02;18.37;;;13.33;;
51602;SDS011;37954;51.980;5.850;2022-11-11T23:26:32;22.43;;;13.03;;
51602;SDS011;37954;51.980;5.850;2022-11-11T23:31:04;15.93;;;10.83;;
51602;SDS011;37954;51.980;5.850;2022-11-11T23:35:35;16.13;;;12.07;;
51602;SDS011;37954;51.980;5.850;2022-11-11T23:40:07;16.30;;;11.43;;
51602;SDS011;37954;51.980;5.850;2022-11-11T23:44:37;18.13;;;12.67;;
51602;SDS011;37954;51.980;5.850;2022-11-11T23:49:08;17.47;;;11.83;;
51602;SDS011;37954;51.980;5.850;2022-11-11T23:53:38;17.53;;;10.67;;
51602;SDS011;37954;51.980;5.850;2022-11-11T23:58:09;14.43;;;9.93;;
